sensor_id;sensor_type;location;lat;lon;timestamp;P1;durP1;ratioP1;P2;durP2;ratioP2
21337;SDS011;72379;50.880;4.350;2023-09-08T00:00:42;15.90;;;11.93;;
21337;SDS011;72379;50.880;4.350;2023-09-08T00:03:08;17.35;;;12.85;;
21337;SDS011;72379;50.880;4.350;2023-09-08T00:05:34;16.65;;;12.50;;
21337;SDS011;72379;50.880;4.350;2023-09-08T00:08:00;21.55;;;13.40;;
21337;SDS011;72379;50.880;4.350;2023-09-08T00:10:26;17.17;;;13.32;;
21337;SDS011;72379;50.880;4.350;2023-09-08T00:12:52;18.08;;;13.00;;
21337;SDS011;72379;50.880;4.350;2023-09-08T00:15:18;18.00;;;13.13;;
21337;SDS011;72379;50.880;4.350;2023-09-08T00:17:43;16.75;;;12.60;;
21337;SDS011;72379;50.880;4.350;2023-09-08T00:20:12;15.95;;;11.93;;
21337;SDS011;72379;50.880;4.350;2023-09-08T00:22:38;18.00;;;12.45;;
21337;SDS011;72379;50.880;4.350;2023-09-08T00:25:06;24.33;;;13.93;;
21337;SDS011;72379;50.880;4.350;2023-09-08T00:27:32;16.42;;;12.10;;
21337;SDS011;72379;50.880;4.350;2023-09-08T00:29:58;20.05;;;13.27;;
21337;SDS011;72379;50.880;4.350;2023-09-08T00:32:26;16.10;;;12.88;;
21337;SDS011;72379;50.880;4.350;2023-09-08T00:34:54;17.38;;;12.48;;
21337;SDS011;72379;50.880;4.350;2023-09-08T00:37:19;18.90;;;12.73;;
21337;SDS011;72379;50.880;4.350;2023-09-08T00:39:46;20.52;;;12.68;;
21337;SDS011;72379;50.880;4.350;2023-09-08T00:42:11;17.38;;;13.30;;
21337;SDS011;72379;50.880;4.350;2023-09-08T00:44:37;18.08;;;12.98;;
21337;SDS011;72379;50.880;4.350;2023-09-08T00:47:04;17.63;;;12.85;;
21337;SDS011;72379;50.880;4.350;2023-09-08T00:49:30;17.77;;;11.95;;
21337;SDS011;72379;50.880;4.350;2023-09-08T00:51:57;18.15;;;12.77;;
21337;SDS011;72379;50.880;4.350;2023-09-08T00:54:23;17.83;;;12.85;;
21337;SDS011;72379;50.880;4.350;2023-09-08T00:56:49;17.15;;;12.75;;
21337;SDS011;72379;50.880;4.350;2023-09-08T00:59:21;22.10;;;12.93;;
21337;SDS011;72379;50.880;4.350;2023-09-08T01:01:47;21.38;;;13.80;;
21337;SDS011;72379;50.880;4.350;2023-09-08T01:04:13;22.67;;;13.02;;
21337;SDS011;72379;50.880;4.350;2023-09-08T01:06:39;22.83;;;12.85;;
21337;SDS011;72379;50.880;4.350;2023-09-08T01:09:05;19.63;;;13.45;;
21337;SDS011;72379;50.880;4.350;2023-09-08T01:11:31;22.25;;;12.35;;
21337;SDS011;72379;50.880;4.350;2023-09-08T01:13:57;18.08;;;12.50;;
21337;SDS011;72379;50.880;4.350;2023-09-08T01:16:23;18.38;;;12.60;;
21337;SDS011;72379;50.880;4.350;2023-09-08T01:18:49;19.08;;;13.07;;
21337;SDS011;72379;50.880;4.350;2023-09-08T01:27:19;18.23;;;13.45;;
21337;SDS011;72379;50.880;4.350;2023-09-08T01:29:48;19.08;;;12.60;;
21337;SDS011;72379;50.880;4.350;2023-09-08T01:32:15;20.42;;;13.10;;
21337;SDS011;72379;50.880;4.350;2023-09-08T01:34:41;22.38;;;13.57;;
21337;SDS011;72379;50.880;4.350;2023-09-08T01:37:09;18.90;;;12.68;;
21337;SDS011;72379;50.880;4.350;2023-09-08T01:39:34;19.02;;;12.85;;
21337;SDS011;72379;50.880;4.350;2023-09-08T01:42:00;20.52;;;13.45;;
21337;SDS011;72379;50.880;4.350;2023-09-08T01:44:26;19.30;;;12.60;;
21337;SDS011;72379;50.880;4.350;2023-09-08T01:46:53;21.10;;;13.63;;
21337;SDS011;72379;50.880;4.350;2023-09-08T01:49:22;19.88;;;13.50;;
21337;SDS011;72379;50.880;4.350;2023-09-08T01:51:48;21.40;;;13.13;;
21337;SDS011;72379;50.880;4.350;2023-09-08T01:54:13;19.15;;;12.82;;
21337;SDS011;72379;50.880;4.350;2023-09-08T01:56:39;16.13;;;13.23;;
21337;SDS011;72379;50.880;4.350;2023-09-08T01:59:05;19.33;;;12.82;;
21337;SDS011;72379;50.880;4.350;2023-09-08T02:01:31;20.67;;;12.43;;
21337;SDS011;72379;50.880;4.350;2023-09-08T02:03:57;18.15;;;12.80;;
21337;SDS011;72379;50.880;4.350;2023-09-08T02:06:23;21.55;;;13.13;;
21337;SDS011;72379;50.880;4.350;2023-09-08T02:08:49;16.55;;;12.65;;
21337;SDS011;72379;50.880;4.350;2023-09-08T02:11:15;19.50;;;13.30;;
21337;SDS011;72379;50.880;4.350;2023-09-08T02:13:44;22.08;;;13.27;;
21337;SDS011;72379;50.880;4.350;2023-09-08T02:16:13;18.10;;;13.05;;
21337;SDS011;72379;50.880;4.350;2023-09-08T02:18:39;18.70;;;12.15;;
21337;SDS011;72379;50.880;4.350;2023-09-08T02:21:08;19.38;;;12.68;;
21337;SDS011;72379;50.880;4.350;2023-09-08T02:23:34;17.63;;;12.52;;
21337;SDS011;72379;50.880;4.350;2023-09-08T02:25:59;17.42;;;13.52;;
21337;SDS011;72379;50.880;4.350;2023-09-08T02:28:25;22.13;;;12.98;;
21337;SDS011;72379;50.880;4.350;2023-09-08T02:30:51;16.67;;;12.05;;
21337;SDS011;72379;50.880;4.350;2023-09-08T02:33:17;19.45;;;13.13;;
21337;SDS011;72379;50.880;4.350;2023-09-08T02:35:43;17.67;;;13.18;;
21337;SDS011;72379;50.880;4.350;2023-09-08T02:38:09;14.88;;;12.10;;
21337;SDS011;72379;50.880;4.350;2023-09-08T02:40:35;20.17;;;13.07;;
21337;SDS011;72379;50.880;4.350;2023-09-08T02:43:01;16.17;;;12.48;;
21337;SDS011;72379;50.880;4.350;2023-09-08T02:45:27;18.98;;;12.45;;
21337;SDS011;72379;50.880;4.350;2023-09-08T02:47:53;16.42;;;12.05;;
21337;SDS011;72379;50.880;4.350;2023-09-08T02:50:20;18.55;;;12.25;;
21337;SDS011;72379;50.880;4.350;2023-09-08T02:52:46;19.25;;;12.57;;
21337;SDS011;72379;50.880;4.350;2023-09-08T02:55:12;23.77;;;13.00;;
21337;SDS011;72379;50.880;4.350;2023-09-08T02:57:39;16.83;;;12.48;;
21337;SDS011;72379;50.880;4.350;2023-09-08T03:00:05;19.63;;;13.02;;
21337;SDS011;72379;50.880;4.350;2023-09-08T03:02:32;18.90;;;12.40;;
21337;SDS011;72379;50.880;4.350;2023-09-08T03:04:58;19.95;;;12.43;;
21337;SDS011;72379;50.880;4.350;2023-09-08T03:07:25;16.35;;;12.07;;
21337;SDS011;72379;50.880;4.350;2023-09-08T03:09:51;21.95;;;12.85;;
21337;SDS011;72379;50.880;4.350;2023-09-08T03:12:17;16.98;;;12.55;;
21337;SDS011;72379;50.880;4.350;2023-09-08T03:14:43;15.38;;;11.95;;
21337;SDS011;72379;50.880;4.350;2023-09-08T03:17:09;16.40;;;11.82;;
21337;SDS011;72379;50.880;4.350;2023-09-08T03:19:35;16.90;;;12.75;;
21337;SDS011;72379;50.880;4.350;2023-09-08T03:22:01;16.00;;;12.50;;
21337;SDS011;72379;50.880;4.350;2023-09-08T03:24:27;21.23;;;12.70;;
21337;SDS011;72379;50.880;4.350;2023-09-08T03:26:53;17.02;;;12.70;;
21337;SDS011;72379;50.880;4.350;2023-09-08T03:29:19;20.98;;;12.98;;
21337;SDS011;72379;50.880;4.350;2023-09-08T03:31:45;15.70;;;12.32;;
21337;SDS011;72379;50.880;4.350;2023-09-08T03:34:11;20.05;;;12.80;;
21337;SDS011;72379;50.880;4.350;2023-09-08T03:36:38;17.48;;;12.10;;
21337;SDS011;72379;50.880;4.350;2023-09-08T03:39:04;22.38;;;12.70;;
21337;SDS011;72379;50.880;4.350;2023-09-08T03:41:30;14.75;;;11.73;;
21337;SDS011;72379;50.880;4.350;2023-09-08T03:43:56;19.88;;;13.48;;
21337;SDS011;72379;50.880;4.350;2023-09-08T03:46:22;18.63;;;11.70;;
21337;SDS011;72379;50.880;4.350;2023-09-08T03:48:50;18.42;;;12.43;;
21337;SDS011;72379;50.880;4.350;2023-09-08T03:51:16;16.90;;;12.07;;
21337;SDS011;72379;50.880;4.350;2023-09-08T03:53:42;19.38;;;11.98;;
21337;SDS011;72379;50.880;4.350;2023-09-08T03:56:08;17.65;;;12.30;;
21337;SDS011;72379;50.880;4.350;2023-09-08T03:58:34;20.00;;;12.30;;
21337;SDS011;72379;50.880;4.350;2023-09-08T04:01:00;15.93;;;12.65;;
21337;SDS011;72379;50.880;4.350;2023-09-08T04:03:26;20.30;;;14.30;;
21337;SDS011;72379;50.880;4.350;2023-09-08T04:05:51;21.40;;;12.73;;
21337;SDS011;72379;50.880;4.350;2023-09-08T04:08:17;18.40;;;12.20;;
21337;SDS011;72379;50.880;4.350;2023-09-08T04:10:43;21.77;;;12.23;;
21337;SDS011;72379;50.880;4.350;2023-09-08T04:13:09;15.30;;;12.10;;
21337;SDS011;72379;50.880;4.350;2023-09-08T04:15:35;19.20;;;12.10;;
21337;SDS011;72379;50.880;4.350;2023-09-08T04:18:02;20.27;;;11.65;;
21337;SDS011;72379;50.880;4.350;2023-09-08T04:20:28;17.27;;;12.38;;
21337;SDS011;72379;50.880;4.350;2023-09-08T04:22:54;17.80;;;12.85;;
21337;SDS011;72379;50.880;4.350;2023-09-08T04:25:20;16.15;;;11.90;;
21337;SDS011;72379;50.880;4.350;2023-09-08T04:27:46;16.17;;;11.93;;
21337;SDS011;72379;50.880;4.350;2023-09-08T04:30:13;17.23;;;12.45;;
21337;SDS011;72379;50.880;4.350;2023-09-08T04:32:39;22.48;;;13.13;;
21337;SDS011;72379;50.880;4.350;2023-09-08T04:35:05;21.08;;;13.75;;
21337;SDS011;72379;50.880;4.350;2023-09-08T04:37:31;17.27;;;12.52;;
21337;SDS011;72379;50.880;4.350;2023-09-08T04:39:57;15.95;;;12.05;;
21337;SDS011;72379;50.880;4.350;2023-09-08T04:42:23;18.83;;;11.98;;
21337;SDS011;72379;50.880;4.350;2023-09-08T04:44:49;19.38;;;12.30;;
21337;SDS011;72379;50.880;4.350;2023-09-08T04:47:15;21.83;;;12.77;;
21337;SDS011;72379;50.880;4.350;2023-09-08T04:49:41;23.23;;;12.65;;
21337;SDS011;72379;50.880;4.350;2023-09-08T04:52:07;23.27;;;12.77;;
21337;SDS011;72379;50.880;4.350;2023-09-08T04:54:33;20.92;;;12.88;;
21337;SDS011;72379;50.880;4.350;2023-09-08T04:57:00;18.08;;;12.93;;
21337;SDS011;72379;50.880;4.350;2023-09-08T04:59:25;19.27;;;12.57;;
21337;SDS011;72379;50.880;4.350;2023-09-08T05:01:51;20.02;;;12.52;;
21337;SDS011;72379;50.880;4.350;2023-09-08T05:04:17;17.45;;;12.07;;
21337;SDS011;72379;50.880;4.350;2023-09-08T05:06:43;22.42;;;13.07;;
21337;SDS011;72379;50.880;4.350;2023-09-08T05:09:09;17.42;;;12.60;;
21337;SDS011;72379;50.880;4.350;2023-09-08T05:11:35;17.65;;;12.52;;
21337;SDS011;72379;50.880;4.350;2023-09-08T05:14:01;20.35;;;12.80;;
21337;SDS011;72379;50.880;4.350;2023-09-08T05:16:27;19.77;;;13.38;;
21337;SDS011;72379;50.880;4.350;2023-09-08T05:19:11;24.95;;;12.82;;
21337;SDS011;72379;50.880;4.350;2023-09-08T05:21:40;16.52;;;12.18;;
21337;SDS011;72379;50.880;4.350;2023-09-08T05:24:06;23.27;;;13.70;;
21337;SDS011;72379;50.880;4.350;2023-09-08T05:26:33;22.75;;;12.82;;
21337;SDS011;72379;50.880;4.350;2023-09-08T05:29:01;20.67;;;13.40;;
21337;SDS011;72379;50.880;4.350;2023-09-08T05:31:27;17.30;;;12.93;;
21337;SDS011;72379;50.880;4.350;2023-09-08T05:33:53;19.90;;;13.10;;
21337;SDS011;72379;50.880;4.350;2023-09-08T05:36:19;20.42;;;12.40;;
21337;SDS011;72379;50.880;4.350;2023-09-08T05:38:45;18.73;;;13.48;;
21337;SDS011;72379;50.880;4.350;2023-09-08T05:41:11;21.40;;;12.63;;
21337;SDS011;72379;50.880;4.350;2023-09-08T05:43:37;21.40;;;13.32;;
21337;SDS011;72379;50.880;4.350;2023-09-08T05:46:03;19.65;;;13.27;;
21337;SDS011;72379;50.880;4.350;2023-09-08T05:48:29;19.20;;;13.18;;
21337;SDS011;72379;50.880;4.350;2023-09-08T05:50:55;24.48;;;14.43;;
21337;SDS011;72379;50.880;4.350;2023-09-08T05:53:21;20.00;;;14.27;;
21337;SDS011;72379;50.880;4.350;2023-09-08T05:55:48;19.33;;;14.38;;
21337;SDS011;72379;50.880;4.350;2023-09-08T05:58:13;20.77;;;13.23;;
21337;SDS011;72379;50.880;4.350;2023-09-08T06:00:39;24.85;;;14.68;;
21337;SDS011;72379;50.880;4.350;2023-09-08T06:03:05;25.48;;;14.00;;
21337;SDS011;72379;50.880;4.350;2023-09-08T06:05:31;25.02;;;15.07;;
21337;SDS011;72379;50.880;4.350;2023-09-08T06:07:57;20.13;;;14.05;;
21337;SDS011;72379;50.880;4.350;2023-09-08T06:10:23;30.08;;;14.82;;
21337;SDS011;72379;50.880;4.350;2023-09-08T06:12:51;26.45;;;13.95;;
21337;SDS011;72379;50.880;4.350;2023-09-08T06:15:17;22.95;;;13.98;;
21337;SDS011;72379;50.880;4.350;2023-09-08T06:17:42;25.92;;;13.05;;
21337;SDS011;72379;50.880;4.350;2023-09-08T06:20:08;19.52;;;12.88;;
21337;SDS011;72379;50.880;4.350;2023-09-08T06:22:34;22.38;;;13.02;;
21337;SDS011;72379;50.880;4.350;2023-09-08T06:25:01;19.27;;;12.90;;
21337;SDS011;72379;50.880;4.350;2023-09-08T06:27:26;21.83;;;12.40;;
21337;SDS011;72379;50.880;4.350;2023-09-08T06:29:52;17.92;;;12.10;;
21337;SDS011;72379;50.880;4.350;2023-09-08T06:32:18;20.38;;;12.27;;
21337;SDS011;72379;50.880;4.350;2023-09-08T06:34:44;18.67;;;12.73;;
21337;SDS011;72379;50.880;4.350;2023-09-08T06:37:10;17.02;;;12.68;;
21337;SDS011;72379;50.880;4.350;2023-09-08T06:39:36;20.80;;;12.52;;
21337;SDS011;72379;50.880;4.350;2023-09-08T06:42:03;20.13;;;12.05;;
21337;SDS011;72379;50.880;4.350;2023-09-08T06:44:29;27.90;;;13.30;;
21337;SDS011;72379;50.880;4.350;2023-09-08T06:46:55;18.38;;;13.00;;
21337;SDS011;72379;50.880;4.350;2023-09-08T06:49:22;17.80;;;12.05;;
21337;SDS011;72379;50.880;4.350;2023-09-08T06:51:48;15.32;;;11.68;;
21337;SDS011;72379;50.880;4.350;2023-09-08T06:54:14;18.50;;;12.23;;
21337;SDS011;72379;50.880;4.350;2023-09-08T06:56:40;19.45;;;12.25;;
21337;SDS011;72379;50.880;4.350;2023-09-08T06:59:06;18.45;;;12.73;;
21337;SDS011;72379;50.880;4.350;2023-09-08T07:01:32;20.92;;;12.10;;
21337;SDS011;72379;50.880;4.350;2023-09-08T07:03:58;19.75;;;12.65;;
21337;SDS011;72379;50.880;4.350;2023-09-08T07:06:23;15.55;;;11.55;;
21337;SDS011;72379;50.880;4.350;2023-09-08T07:08:49;21.75;;;11.85;;
21337;SDS011;72379;50.880;4.350;2023-09-08T07:11:15;21.48;;;12.20;;
21337;SDS011;72379;50.880;4.350;2023-09-08T07:13:42;19.65;;;12.25;;
21337;SDS011;72379;50.880;4.350;2023-09-08T07:16:08;15.70;;;11.52;;
21337;SDS011;72379;50.880;4.350;2023-09-08T07:18:34;18.48;;;11.27;;
21337;SDS011;72379;50.880;4.350;2023-09-08T07:21:02;19.75;;;11.32;;
21337;SDS011;72379;50.880;4.350;2023-09-08T07:23:28;18.33;;;11.10;;
21337;SDS011;72379;50.880;4.350;2023-09-08T07:25:54;14.27;;;10.32;;
21337;SDS011;72379;50.880;4.350;2023-09-08T07:28:20;19.90;;;11.73;;
21337;SDS011;72379;50.880;4.350;2023-09-08T07:30:46;16.10;;;11.38;;
21337;SDS011;72379;50.880;4.350;2023-09-08T07:33:12;15.82;;;10.82;;
21337;SDS011;72379;50.880;4.350;2023-09-08T07:35:38;16.85;;;10.38;;
21337;SDS011;72379;50.880;4.350;2023-09-08T07:38:05;18.23;;;10.35;;
21337;SDS011;72379;50.880;4.350;2023-09-08T07:40:34;14.35;;;10.80;;
21337;SDS011;72379;50.880;4.350;2023-09-08T07:43:01;18.50;;;11.32;;
21337;SDS011;72379;50.880;4.350;2023-09-08T07:45:27;16.55;;;11.35;;
21337;SDS011;72379;50.880;4.350;2023-09-08T07:47:53;16.80;;;11.27;;
21337;SDS011;72379;50.880;4.350;2023-09-08T07:52:45;16.98;;;11.88;;
21337;SDS011;72379;50.880;4.350;2023-09-08T07:55:13;15.57;;;11.52;;
21337;SDS011;72379;50.880;4.350;2023-09-08T07:57:38;19.08;;;11.18;;
21337;SDS011;72379;50.880;4.350;2023-09-08T08:00:05;17.38;;;10.85;;
21337;SDS011;72379;50.880;4.350;2023-09-08T08:02:31;18.75;;;11.02;;
21337;SDS011;72379;50.880;4.350;2023-09-08T08:04:57;25.40;;;12.85;;
21337;SDS011;72379;50.880;4.350;2023-09-08T08:07:23;20.60;;;11.15;;
21337;SDS011;72379;50.880;4.350;2023-09-08T08:09:49;21.52;;;11.50;;
21337;SDS011;72379;50.880;4.350;2023-09-08T08:12:15;19.33;;;10.88;;
21337;SDS011;72379;50.880;4.350;2023-09-08T08:14:41;22.35;;;10.70;;
21337;SDS011;72379;50.880;4.350;2023-09-08T08:17:07;14.52;;;10.25;;
21337;SDS011;72379;50.880;4.350;2023-09-08T08:19:33;15.70;;;10.15;;
21337;SDS011;72379;50.880;4.350;2023-09-08T08:21:59;14.18;;;9.90;;
21337;SDS011;72379;50.880;4.350;2023-09-08T08:24:24;16.88;;;10.15;;
21337;SDS011;72379;50.880;4.350;2023-09-08T08:26:51;14.35;;;10.10;;
21337;SDS011;72379;50.880;4.350;2023-09-08T08:29:17;19.17;;;10.52;;
21337;SDS011;72379;50.880;4.350;2023-09-08T08:31:43;13.50;;;9.80;;
21337;SDS011;72379;50.880;4.350;2023-09-08T08:34:09;20.23;;;10.32;;
21337;SDS011;72379;50.880;4.350;2023-09-08T08:36:34;18.98;;;9.90;;
21337;SDS011;72379;50.880;4.350;2023-09-08T08:39:00;15.90;;;10.20;;
21337;SDS011;72379;50.880;4.350;2023-09-08T08:41:28;15.65;;;10.95;;
21337;SDS011;72379;50.880;4.350;2023-09-08T08:43:54;16.48;;;10.00;;
21337;SDS011;72379;50.880;4.350;2023-09-08T08:46:21;14.65;;;9.70;;
21337;SDS011;72379;50.880;4.350;2023-09-08T08:48:48;21.73;;;10.77;;
21337;SDS011;72379;50.880;4.350;2023-09-08T08:51:15;16.13;;;9.93;;
21337;SDS011;72379;50.880;4.350;2023-09-08T08:53:43;13.32;;;9.55;;
21337;SDS011;72379;50.880;4.350;2023-09-08T08:56:09;11.60;;;10.13;;
21337;SDS011;72379;50.880;4.350;2023-09-08T08:58:36;15.07;;;10.18;;
21337;SDS011;72379;50.880;4.350;2023-09-08T09:01:05;17.67;;;9.93;;
21337;SDS011;72379;50.880;4.350;2023-09-08T09:03:32;16.63;;;9.65;;
21337;SDS011;72379;50.880;4.350;2023-09-08T09:05:59;18.77;;;9.68;;
21337;SDS011;72379;50.880;4.350;2023-09-08T09:08:26;15.77;;;9.40;;
21337;SDS011;72379;50.880;4.350;2023-09-08T09:10:52;13.82;;;9.68;;
21337;SDS011;72379;50.880;4.350;2023-09-08T09:13:18;22.02;;;10.20;;
21337;SDS011;72379;50.880;4.350;2023-09-08T09:15:45;12.93;;;9.38;;
21337;SDS011;72379;50.880;4.350;2023-09-08T09:18:11;13.57;;;8.77;;
21337;SDS011;72379;50.880;4.350;2023-09-08T09:20:37;14.98;;;10.35;;
21337;SDS011;72379;50.880;4.350;2023-09-08T09:23:05;21.20;;;10.38;;
21337;SDS011;72379;50.880;4.350;2023-09-08T09:25:31;12.05;;;9.95;;
21337;SDS011;72379;50.880;4.350;2023-09-08T09:28:01;13.50;;;9.25;;
21337;SDS011;72379;50.880;4.350;2023-09-08T09:30:28;14.32;;;9.77;;
21337;SDS011;72379;50.880;4.350;2023-09-08T09:33:10;15.27;;;9.63;;
21337;SDS011;72379;50.880;4.350;2023-09-08T09:35:39;12.50;;;9.07;;
21337;SDS011;72379;50.880;4.350;2023-09-08T09:38:05;15.50;;;8.55;;
21337;SDS011;72379;50.880;4.350;2023-09-08T09:40:31;17.38;;;8.65;;
21337;SDS011;72379;50.880;4.350;2023-09-08T09:42:58;14.30;;;8.70;;
21337;SDS011;72379;50.880;4.350;2023-09-08T09:45:27;12.23;;;9.00;;
21337;SDS011;72379;50.880;4.350;2023-09-08T09:47:53;12.15;;;9.52;;
21337;SDS011;72379;50.880;4.350;2023-09-08T09:50:27;10.15;;;8.70;;
21337;SDS011;72379;50.880;4.350;2023-09-08T09:52:56;13.60;;;8.65;;
21337;SDS011;72379;50.880;4.350;2023-09-08T09:55:24;17.63;;;9.23;;
21337;SDS011;72379;50.880;4.350;2023-09-08T09:57:51;11.48;;;9.13;;
21337;SDS011;72379;50.880;4.350;2023-09-08T10:00:20;17.42;;;9.75;;
21337;SDS011;72379;50.880;4.350;2023-09-08T10:02:47;12.48;;;9.00;;
21337;SDS011;72379;50.880;4.350;2023-09-08T10:05:14;15.77;;;9.40;;
21337;SDS011;72379;50.880;4.350;2023-09-08T10:07:40;17.42;;;9.25;;
21337;SDS011;72379;50.880;4.350;2023-09-08T10:10:07;15.60;;;10.02;;
21337;SDS011;72379;50.880;4.350;2023-09-08T10:12:34;17.13;;;9.15;;
21337;SDS011;72379;50.880;4.350;2023-09-08T10:15:02;14.70;;;9.00;;
21337;SDS011;72379;50.880;4.350;2023-09-08T10:17:30;17.60;;;10.68;;
21337;SDS011;72379;50.880;4.350;2023-09-08T10:19:59;12.73;;;9.48;;
21337;SDS011;72379;50.880;4.350;2023-09-08T10:22:33;17.05;;;8.65;;
21337;SDS011;72379;50.880;4.350;2023-09-08T10:25:01;13.48;;;8.20;;
21337;SDS011;72379;50.880;4.350;2023-09-08T10:27:30;13.13;;;8.82;;
21337;SDS011;72379;50.880;4.350;2023-09-08T10:29:57;14.27;;;9.30;;
21337;SDS011;72379;50.880;4.350;2023-09-08T10:32:26;13.57;;;9.05;;
21337;SDS011;72379;50.880;4.350;2023-09-08T10:34:53;16.00;;;9.52;;
21337;SDS011;72379;50.880;4.350;2023-09-08T10:37:23;14.63;;;8.60;;
21337;SDS011;72379;50.880;4.350;2023-09-08T10:39:50;8.48;;;7.00;;
21337;SDS011;72379;50.880;4.350;2023-09-08T10:47:24;12.95;;;7.70;;
21337;SDS011;72379;50.880;4.350;2023-09-08T10:49:51;14.20;;;7.80;;
21337;SDS011;72379;50.880;4.350;2023-09-08T10:52:23;10.32;;;6.82;;
21337;SDS011;72379;50.880;4.350;2023-09-08T10:54:53;17.23;;;7.68;;
21337;SDS011;72379;50.880;4.350;2023-09-08T10:57:21;8.05;;;6.93;;
21337;SDS011;72379;50.880;4.350;2023-09-08T11:05:07;8.52;;;6.30;;
21337;SDS011;72379;50.880;4.350;2023-09-08T11:07:38;9.63;;;6.15;;
21337;SDS011;72379;50.880;4.350;2023-09-08T11:10:04;9.10;;;6.15;;
21337;SDS011;72379;50.880;4.350;2023-09-08T11:12:31;10.60;;;6.60;;
21337;SDS011;72379;50.880;4.350;2023-09-08T11:14:57;10.73;;;6.30;;
21337;SDS011;72379;50.880;4.350;2023-09-08T11:17:28;7.05;;;6.20;;
21337;SDS011;72379;50.880;4.350;2023-09-08T11:19:54;12.15;;;6.43;;
21337;SDS011;72379;50.880;4.350;2023-09-08T11:22:22;18.50;;;6.20;;
21337;SDS011;72379;50.880;4.350;2023-09-08T11:24:49;15.20;;;5.72;;
21337;SDS011;72379;50.880;4.350;2023-09-08T11:27:17;7.00;;;4.60;;
21337;SDS011;72379;50.880;4.350;2023-09-08T11:29:43;8.57;;;5.70;;
21337;SDS011;72379;50.880;4.350;2023-09-08T11:32:10;8.75;;;6.43;;
21337;SDS011;72379;50.880;4.350;2023-09-08T11:34:36;12.48;;;6.50;;
21337;SDS011;72379;50.880;4.350;2023-09-08T11:37:20;10.73;;;6.63;;
21337;SDS011;72379;50.880;4.350;2023-09-08T11:39:46;7.97;;;5.97;;
21337;SDS011;72379;50.880;4.350;2023-09-08T11:42:13;9.20;;;5.85;;
21337;SDS011;72379;50.880;4.350;2023-09-08T11:44:40;7.22;;;6.03;;
21337;SDS011;72379;50.880;4.350;2023-09-08T11:47:06;9.70;;;6.20;;
21337;SDS011;72379;50.880;4.350;2023-09-08T11:49:36;10.57;;;6.00;;
21337;SDS011;72379;50.880;4.350;2023-09-08T11:52:03;11.25;;;5.72;;
21337;SDS011;72379;50.880;4.350;2023-09-08T11:54:31;7.22;;;6.35;;
21337;SDS011;72379;50.880;4.350;2023-09-08T11:57:01;18.45;;;5.97;;
21337;SDS011;72379;50.880;4.350;2023-09-08T11:59:30;8.20;;;5.60;;
21337;SDS011;72379;50.880;4.350;2023-09-08T12:01:56;6.40;;;4.80;;
21337;SDS011;72379;50.880;4.350;2023-09-08T12:04:22;8.50;;;5.40;;
21337;SDS011;72379;50.880;4.350;2023-09-08T12:06:49;10.77;;;6.30;;
21337;SDS011;72379;50.880;4.350;2023-09-08T12:09:17;12.45;;;5.55;;
21337;SDS011;72379;50.880;4.350;2023-09-08T12:11:43;6.75;;;5.75;;
21337;SDS011;72379;50.880;4.350;2023-09-08T12:14:12;10.23;;;5.50;;
21337;SDS011;72379;50.880;4.350;2023-09-08T12:16:40;9.32;;;4.97;;
21337;SDS011;72379;50.880;4.350;2023-09-08T12:19:06;14.57;;;5.28;;
21337;SDS011;72379;50.880;4.350;2023-09-08T12:24:20;10.35;;;5.93;;
21337;SDS011;72379;50.880;4.350;2023-09-08T12:26:48;14.45;;;5.82;;
21337;SDS011;72379;50.880;4.350;2023-09-08T12:29:14;11.68;;;6.28;;
21337;SDS011;72379;50.880;4.350;2023-09-08T12:31:40;11.10;;;5.32;;
21337;SDS011;72379;50.880;4.350;2023-09-08T12:34:06;10.38;;;6.35;;
21337;SDS011;72379;50.880;4.350;2023-09-08T12:36:34;7.63;;;5.80;;
21337;SDS011;72379;50.880;4.350;2023-09-08T12:39:03;12.07;;;5.72;;
21337;SDS011;72379;50.880;4.350;2023-09-08T12:41:29;10.85;;;6.13;;
21337;SDS011;72379;50.880;4.350;2023-09-08T12:43:55;10.27;;;5.68;;
21337;SDS011;72379;50.880;4.350;2023-09-08T12:46:21;9.65;;;6.00;;
21337;SDS011;72379;50.880;4.350;2023-09-08T12:48:47;11.82;;;5.85;;
21337;SDS011;72379;50.880;4.350;2023-09-08T12:51:13;8.88;;;6.63;;
21337;SDS011;72379;50.880;4.350;2023-09-08T12:53:39;8.82;;;5.90;;
21337;SDS011;72379;50.880;4.350;2023-09-08T12:56:05;14.98;;;6.20;;
21337;SDS011;72379;50.880;4.350;2023-09-08T12:58:30;12.82;;;6.30;;
21337;SDS011;72379;50.880;4.350;2023-09-08T13:00:57;9.75;;;5.90;;
21337;SDS011;72379;50.880;4.350;2023-09-08T13:03:22;9.55;;;5.90;;
21337;SDS011;72379;50.880;4.350;2023-09-08T13:05:48;11.45;;;5.80;;
21337;SDS011;72379;50.880;4.350;2023-09-08T13:08:14;11.10;;;6.18;;
21337;SDS011;72379;50.880;4.350;2023-09-08T13:10:40;15.73;;;5.95;;
21337;SDS011;72379;50.880;4.350;2023-09-08T13:13:06;12.02;;;5.95;;
21337;SDS011;72379;50.880;4.350;2023-09-08T13:15:31;12.90;;;6.30;;
21337;SDS011;72379;50.880;4.350;2023-09-08T13:17:57;14.07;;;6.38;;
21337;SDS011;72379;50.880;4.350;2023-09-08T13:20:23;13.07;;;6.30;;
21337;SDS011;72379;50.880;4.350;2023-09-08T13:22:48;15.68;;;6.55;;
21337;SDS011;72379;50.880;4.350;2023-09-08T13:25:14;9.30;;;5.97;;
21337;SDS011;72379;50.880;4.350;2023-09-08T13:27:40;9.55;;;5.75;;
21337;SDS011;72379;50.880;4.350;2023-09-08T13:30:14;17.25;;;6.38;;
21337;SDS011;72379;50.880;4.350;2023-09-08T13:32:41;10.80;;;6.25;;
21337;SDS011;72379;50.880;4.350;2023-09-08T13:35:07;15.25;;;6.47;;
21337;SDS011;72379;50.880;4.350;2023-09-08T13:37:33;12.60;;;6.00;;
21337;SDS011;72379;50.880;4.350;2023-09-08T13:40:00;12.60;;;6.07;;
21337;SDS011;72379;50.880;4.350;2023-09-08T13:42:28;11.70;;;6.25;;
21337;SDS011;72379;50.880;4.350;2023-09-08T13:44:54;11.82;;;6.20;;
21337;SDS011;72379;50.880;4.350;2023-09-08T13:47:20;16.63;;;6.07;;
21337;SDS011;72379;50.880;4.350;2023-09-08T13:49:46;18.20;;;6.70;;
21337;SDS011;72379;50.880;4.350;2023-09-08T13:52:11;11.30;;;6.00;;
21337;SDS011;72379;50.880;4.350;2023-09-08T13:54:37;14.02;;;5.80;;
21337;SDS011;72379;50.880;4.350;2023-09-08T13:57:03;15.90;;;6.05;;
21337;SDS011;72379;50.880;4.350;2023-09-08T13:59:29;15.43;;;6.85;;
21337;SDS011;72379;50.880;4.350;2023-09-08T14:01:55;17.80;;;5.75;;
21337;SDS011;72379;50.880;4.350;2023-09-08T14:04:22;18.58;;;6.65;;
21337;SDS011;72379;50.880;4.350;2023-09-08T14:06:48;29.58;;;6.35;;
21337;SDS011;72379;50.880;4.350;2023-09-08T14:09:14;17.52;;;7.03;;
21337;SDS011;72379;50.880;4.350;2023-09-08T14:11:40;13.43;;;6.00;;
21337;SDS011;72379;50.880;4.350;2023-09-08T14:14:06;28.08;;;7.82;;
21337;SDS011;72379;50.880;4.350;2023-09-08T14:16:32;21.30;;;7.80;;
21337;SDS011;72379;50.880;4.350;2023-09-08T14:18:57;17.83;;;6.70;;
21337;SDS011;72379;50.880;4.350;2023-09-08T14:21:23;18.55;;;7.15;;
21337;SDS011;72379;50.880;4.350;2023-09-08T14:23:49;16.95;;;6.25;;
21337;SDS011;72379;50.880;4.350;2023-09-08T14:26:15;23.27;;;6.45;;
21337;SDS011;72379;50.880;4.350;2023-09-08T14:28:41;23.88;;;6.85;;
21337;SDS011;72379;50.880;4.350;2023-09-08T14:31:07;19.45;;;8.13;;
21337;SDS011;72379;50.880;4.350;2023-09-08T14:33:33;17.70;;;6.78;;
21337;SDS011;72379;50.880;4.350;2023-09-08T14:35:58;16.55;;;6.78;;
21337;SDS011;72379;50.880;4.350;2023-09-08T14:38:26;24.80;;;6.07;;
21337;SDS011;72379;50.880;4.350;2023-09-08T14:40:58;18.60;;;6.95;;
21337;SDS011;72379;50.880;4.350;2023-09-08T14:43:40;15.82;;;6.30;;
21337;SDS011;72379;50.880;4.350;2023-09-08T14:46:06;18.20;;;7.43;;